sensor_id;sensor_type;location;lat;lon;timestamp;pressure;altitude;pressure_sealevel;temperature;humidity
28027;BME280;15344;52.342;-1.290;2023-05-02T00:01:22;100948.53;;;14.47;81.46
28027;BME280;15344;52.342;-1.290;2023-05-02T00:03:47;100949.18;;;16.17;76.76
28027;BME280;15344;52.342;-1.290;2023-05-02T00:06:12;100948.97;;;15.41;81.29
28027;BME280;15344;52.342;-1.290;2023-05-02T00:08:38;100948.02;;;16.16;77.25
28027;BME280;15344;52.342;-1.290;2023-05-02T00:11:03;100955.29;;;14.64;82.02
28027;BME280;15344;52.342;-1.290;2023-05-02T00:13:28;100960.64;;;15.11;83.72
28027;BME280;15344;52.342;-1.290;2023-05-02T00:15:54;100962.05;;;15.19;81.18
28027;BME280;15344;52.342;-1.290;2023-05-02T00:18:19;100960.73;;;15.76;80.19
28027;BME280;15344;52.342;-1.290;2023-05-02T00:20:44;100959.39;;;15.96;78.45
28027;BME280;15344;52.342;-1.290;2023-05-02T00:23:09;100961.28;;;16.48;77.41
28027;BME280;15344;52.342;-1.290;2023-05-02T00:25:35;100956.52;;;15.78;77.09
28027;BME280;15344;52.342;-1.290;2023-05-02T00:28:00;100954.45;;;16.38;75.57
28027;BME280;15344;52.342;-1.290;2023-05-02T00:30:25;100949.91;;;16.18;76.16
28027;BME280;15344;52.342;-1.290;2023-05-02T00:32:50;100953.68;;;17.08;72.06
28027;BME280;15344;52.342;-1.290;2023-05-02T00:35:16;100958.53;;;15.45;78.07
28027;BME280;15344;52.342;-1.290;2023-05-02T00:37:41;100956.96;;;16.09;76.57
28027;BME280;15344;52.342;-1.290;2023-05-02T00:40:07;100962.59;;;15.35;78.92
28027;BME280;15344;52.342;-1.290;2023-05-02T00:42:32;100966.39;;;15.20;79.45
28027;BME280;15344;52.342;-1.290;2023-05-02T00:44:57;100965.25;;;15.51;77.32
28027;BME280;15344;52.342;-1.290;2023-05-02T00:47:22;100968.34;;;14.64;81.31
28027;BME280;15344;52.342;-1.290;2023-05-02T00:49:49;100971.57;;;15.55;78.22
28027;BME280;15344;52.342;-1.290;2023-05-02T00:52:13;100979.60;;;13.89;83.73
28027;BME280;15344;52.342;-1.290;2023-05-02T00:54:38;100985.94;;;14.12;81.08
28027;BME280;15344;52.342;-1.290;2023-05-02T00:57:03;100990.83;;;13.43;84.35
28027;BME280;15344;52.342;-1.290;2023-05-02T00:59:29;100993.05;;;14.05;82.48
28027;BME280;15344;52.342;-1.290;2023-05-02T01:02:02;100993.60;;;14.31;80.90
28027;BME280;15344;52.342;-1.290;2023-05-02T01:04:29;101000.09;;;13.17;85.73
28027;BME280;15344;52.342;-1.290;2023-05-02T01:06:54;100995.58;;;13.66;81.86
28027;BME280;15344;52.342;-1.290;2023-05-02T01:11:43;100999.99;;;13.03;85.14
28027;BME280;15344;52.342;-1.290;2023-05-02T01:14:04;101001.82;;;13.24;85.07
28027;BME280;15344;52.342;-1.290;2023-05-02T01:16:27;100999.52;;;12.85;88.77
28027;BME280;15344;52.342;-1.290;2023-05-02T01:18:53;101003.07;;;11.85;90.37
28027;BME280;15344;52.342;-1.290;2023-05-02T01:21:18;101004.12;;;12.61;91.52
28027;BME280;15344;52.342;-1.290;2023-05-02T01:23:52;101004.92;;;12.47;90.51
28027;BME280;15344;52.342;-1.290;2023-05-02T01:26:15;101006.72;;;12.39;88.76
28027;BME280;15344;52.342;-1.290;2023-05-02T01:31:00;101016.61;;;13.87;84.31
28027;BME280;15344;52.342;-1.290;2023-05-02T01:33:25;101011.12;;;12.57;87.87
28027;BME280;15344;52.342;-1.290;2023-05-02T01:35:51;101009.65;;;12.37;88.13
28027;BME280;15344;52.342;-1.290;2023-05-02T01:38:16;101013.62;;;12.59;88.24
28027;BME280;15344;52.342;-1.290;2023-05-02T01:40:41;101015.43;;;13.29;86.20
28027;BME280;15344;52.342;-1.290;2023-05-02T01:43:06;101018.67;;;13.33;84.94
28027;BME280;15344;52.342;-1.290;2023-05-02T01:45:32;101023.58;;;13.85;82.63
28027;BME280;15344;52.342;-1.290;2023-05-02T01:47:57;101018.61;;;14.61;80.51
28027;BME280;15344;52.342;-1.290;2023-05-02T01:50:23;101021.04;;;13.51;82.85
28027;BME280;15344;52.342;-1.290;2023-05-02T01:52:49;101022.82;;;13.86;81.89
28027;BME280;15344;52.342;-1.290;2023-05-02T01:55:14;101019.62;;;13.35;85.30
28027;BME280;15344;52.342;-1.290;2023-05-02T01:57:40;101015.22;;;13.22;88.64
28027;BME280;15344;52.342;-1.290;2023-05-02T02:00:04;101018.99;;;13.69;85.02
28027;BME280;15344;52.342;-1.290;2023-05-02T02:02:29;101020.40;;;13.16;84.60
28027;BME280;15344;52.342;-1.290;2023-05-02T02:04:54;101027.37;;;13.03;86.47
28027;BME280;15344;52.342;-1.290;2023-05-02T02:07:19;101030.42;;;13.07;84.96
28027;BME280;15344;52.342;-1.290;2023-05-02T02:09:44;101036.78;;;13.93;81.18
28027;BME280;15344;52.342;-1.290;2023-05-02T02:12:14;101044.62;;;13.46;83.84
28027;BME280;15344;52.342;-1.290;2023-05-02T02:14:37;101048.66;;;14.46;80.74
28027;BME280;15344;52.342;-1.290;2023-05-02T02:17:02;101051.77;;;14.50;80.38
28027;BME280;15344;52.342;-1.290;2023-05-02T02:19:26;101048.59;;;14.08;79.93
28027;BME280;15344;52.342;-1.290;2023-05-02T02:21:53;101048.53;;;14.94;76.63
28027;BME280;15344;52.342;-1.290;2023-05-02T02:24:18;101053.50;;;13.84;79.49
28027;BME280;15344;52.342;-1.290;2023-05-02T02:26:42;101048.65;;;15.37;76.17
28027;BME280;15344;52.342;-1.290;2023-05-02T02:29:08;101052.15;;;15.66;74.58
28027;BME280;15344;52.342;-1.290;2023-05-02T02:31:33;101053.21;;;14.96;76.12
28027;BME280;15344;52.342;-1.290;2023-05-02T02:33:58;101050.70;;;15.27;75.52
28027;BME280;15344;52.342;-1.290;2023-05-02T02:36:28;101053.51;;;14.65;75.70
28027;BME280;15344;52.342;-1.290;2023-05-02T02:38:54;101056.02;;;15.41;73.55
28027;BME280;15344;52.342;-1.290;2023-05-02T02:41:19;101052.26;;;15.77;72.90
28027;BME280;15344;52.342;-1.290;2023-05-02T02:43:46;101048.45;;;15.52;73.79
28027;BME280;15344;52.342;-1.290;2023-05-02T02:46:13;101055.04;;;14.48;77.21
28027;BME280;15344;52.342;-1.290;2023-05-02T02:48:34;101052.86;;;15.05;76.51
28027;BME280;15344;52.342;-1.290;2023-05-02T02:51:06;101056.16;;;14.50;78.01
28027;BME280;15344;52.342;-1.290;2023-05-02T02:53:26;101056.50;;;14.87;76.92
28027;BME280;15344;52.342;-1.290;2023-05-02T02:55:49;101058.27;;;15.39;74.44
28027;BME280;15344;52.342;-1.290;2023-05-02T02:58:20;101058.68;;;14.77;76.36
28027;BME280;15344;52.342;-1.290;2023-05-02T03:00:37;101052.61;;;14.93;74.98
28027;BME280;15344;52.342;-1.290;2023-05-02T03:03:04;101055.72;;;14.49;77.57
28027;BME280;15344;52.342;-1.290;2023-05-02T03:05:28;101057.22;;;13.92;80.44
28027;BME280;15344;52.342;-1.290;2023-05-02T03:07:53;101061.38;;;14.01;82.01
28027;BME280;15344;52.342;-1.290;2023-05-02T03:10:18;101066.19;;;13.95;82.56
28027;BME280;15344;52.342;-1.290;2023-05-02T03:12:43;101064.45;;;14.39;78.91
28027;BME280;15344;52.342;-1.290;2023-05-02T03:15:21;101059.68;;;14.94;77.24
28027;BME280;15344;52.342;-1.290;2023-05-02T03:17:34;101058.98;;;15.34;74.55
28027;BME280;15344;52.342;-1.290;2023-05-02T03:19:59;101056.98;;;15.46;75.31
28027;BME280;15344;52.342;-1.290;2023-05-02T03:22:25;101058.88;;;15.06;76.43
28027;BME280;15344;52.342;-1.290;2023-05-02T03:24:50;101064.46;;;15.20;75.55
28027;BME280;15344;52.342;-1.290;2023-05-02T03:27:16;101067.02;;;14.40;78.08
28027;BME280;15344;52.342;-1.290;2023-05-02T03:29:42;101063.86;;;14.62;78.26
28027;BME280;15344;52.342;-1.290;2023-05-02T03:32:07;101065.79;;;13.56;82.05
28027;BME280;15344;52.342;-1.290;2023-05-02T03:34:33;101071.64;;;13.73;82.84
28027;BME280;15344;52.342;-1.290;2023-05-02T03:36:58;101071.92;;;14.34;80.54
28027;BME280;15344;52.342;-1.290;2023-05-02T03:39:23;101073.09;;;14.72;80.08
28027;BME280;15344;52.342;-1.290;2023-05-02T03:41:48;101079.41;;;14.37;81.87
28027;BME280;15344;52.342;-1.290;2023-05-02T03:44:14;101082.86;;;13.97;84.70
28027;BME280;15344;52.342;-1.290;2023-05-02T03:46:39;101081.99;;;13.46;84.97
28027;BME280;15344;52.342;-1.290;2023-05-02T03:49:05;101081.18;;;12.74;89.63
28027;BME280;15344;52.342;-1.290;2023-05-02T03:51:30;101084.97;;;11.99;94.00
28027;BME280;15344;52.342;-1.290;2023-05-02T03:53:56;101086.25;;;12.72;90.91
28027;BME280;15344;52.342;-1.290;2023-05-02T03:56:21;101095.62;;;13.67;86.12
28027;BME280;15344;52.342;-1.290;2023-05-02T03:58:47;101101.28;;;13.76;86.42
28027;BME280;15344;52.342;-1.290;2023-05-02T04:01:13;101111.70;;;14.11;85.05
28027;BME280;15344;52.342;-1.290;2023-05-02T04:03:37;101121.97;;;14.79;82.37
28027;BME280;15344;52.342;-1.290;2023-05-02T04:06:02;101121.32;;;14.42;82.42
28027;BME280;15344;52.342;-1.290;2023-05-02T04:08:27;101122.77;;;14.10;83.47
28027;BME280;15344;52.342;-1.290;2023-05-02T04:10:53;101117.05;;;14.75;79.81
28027;BME280;15344;52.342;-1.290;2023-05-02T04:13:19;101116.39;;;14.06;84.25
28027;BME280;15344;52.342;-1.290;2023-05-02T04:15:44;101118.04;;;14.11;82.51
28027;BME280;15344;52.342;-1.290;2023-05-02T04:18:10;101121.52;;;14.46;82.05
28027;BME280;15344;52.342;-1.290;2023-05-02T04:20:36;101120.77;;;13.65;86.47
28027;BME280;15344;52.342;-1.290;2023-05-02T04:23:01;101123.58;;;14.11;85.63
28027;BME280;15344;52.342;-1.290;2023-05-02T04:25:27;101123.29;;;12.46;93.70
28027;BME280;15344;52.342;-1.290;2023-05-02T04:27:52;101126.86;;;14.34;85.38
28027;BME280;15344;52.342;-1.290;2023-05-02T04:30:18;101128.94;;;13.63;85.32
28027;BME280;15344;52.342;-1.290;2023-05-02T04:32:43;101128.65;;;13.78;84.96
28027;BME280;15344;52.342;-1.290;2023-05-02T04:35:09;101131.52;;;14.09;81.15
28027;BME280;15344;52.342;-1.290;2023-05-02T04:37:34;101131.68;;;14.69;80.87
28027;BME280;15344;52.342;-1.290;2023-05-02T04:40:00;101134.76;;;12.26;92.43
28027;BME280;15344;52.342;-1.290;2023-05-02T04:42:25;101133.71;;;12.67;90.98
28027;BME280;15344;52.342;-1.290;2023-05-02T04:44:50;101134.47;;;13.63;87.21
28027;BME280;15344;52.342;-1.290;2023-05-02T04:47:15;101134.22;;;12.63;89.62
28027;BME280;15344;52.342;-1.290;2023-05-02T04:49:42;101133.66;;;13.67;84.46
28027;BME280;15344;52.342;-1.290;2023-05-02T04:52:06;101133.62;;;14.43;83.22
28027;BME280;15344;52.342;-1.290;2023-05-02T04:54:32;101132.26;;;12.99;86.08
28027;BME280;15344;52.342;-1.290;2023-05-02T04:56:57;101132.81;;;14.14;83.40
28027;BME280;15344;52.342;-1.290;2023-05-02T04:59:22;101132.38;;;13.80;82.42
28027;BME280;15344;52.342;-1.290;2023-05-02T05:01:48;101127.95;;;13.75;83.44
28027;BME280;15344;52.342;-1.290;2023-05-02T05:04:14;101128.81;;;13.05;84.05
28027;BME280;15344;52.342;-1.290;2023-05-02T05:06:38;101131.39;;;13.45;83.42
28027;BME280;15344;52.342;-1.290;2023-05-02T05:09:03;101131.87;;;13.76;82.85
28027;BME280;15344;52.342;-1.290;2023-05-02T05:11:29;101129.60;;;14.58;78.72
28027;BME280;15344;52.342;-1.290;2023-05-02T05:13:54;101130.82;;;14.26;78.50
28027;BME280;15344;52.342;-1.290;2023-05-02T05:16:19;101128.76;;;13.84;80.68
28027;BME280;15344;52.342;-1.290;2023-05-02T05:18:44;101131.56;;;14.30;79.53
28027;BME280;15344;52.342;-1.290;2023-05-02T05:21:10;101127.68;;;13.32;83.41
28027;BME280;15344;52.342;-1.290;2023-05-02T05:23:35;101132.42;;;12.59;88.67
28027;BME280;15344;52.342;-1.290;2023-05-02T05:26:08;101131.96;;;12.74;86.89
28027;BME280;15344;52.342;-1.290;2023-05-02T05:28:25;101127.88;;;13.33;84.45
28027;BME280;15344;52.342;-1.290;2023-05-02T05:30:51;101130.67;;;13.15;84.30
28027;BME280;15344;52.342;-1.290;2023-05-02T05:33:16;101137.51;;;13.46;81.93
28027;BME280;15344;52.342;-1.290;2023-05-02T05:35:41;101144.55;;;12.90;86.04
28027;BME280;15344;52.342;-1.290;2023-05-02T05:38:07;101152.73;;;12.95;86.37
28027;BME280;15344;52.342;-1.290;2023-05-02T05:40:32;101156.10;;;13.32;84.62
28027;BME280;15344;52.342;-1.290;2023-05-02T05:42:57;101157.96;;;13.25;84.64
28027;BME280;15344;52.342;-1.290;2023-05-02T05:45:23;101160.59;;;12.34;87.77
28027;BME280;15344;52.342;-1.290;2023-05-02T05:47:48;101162.36;;;13.25;85.38
28027;BME280;15344;52.342;-1.290;2023-05-02T05:50:13;101160.59;;;13.02;85.67
28027;BME280;15344;52.342;-1.290;2023-05-02T05:52:38;101163.45;;;13.10;84.77
28027;BME280;15344;52.342;-1.290;2023-05-02T05:55:04;101171.30;;;13.08;85.99
28027;BME280;15344;52.342;-1.290;2023-05-02T05:57:29;101176.28;;;12.05;89.87
28027;BME280;15344;52.342;-1.290;2023-05-02T05:59:54;101174.01;;;12.88;86.92
28027;BME280;15344;52.342;-1.290;2023-05-02T06:02:20;101176.09;;;13.91;84.35
28027;BME280;15344;52.342;-1.290;2023-05-02T06:04:45;101184.79;;;13.62;83.32
28027;BME280;15344;52.342;-1.290;2023-05-02T06:07:10;101185.50;;;13.97;82.07
28027;BME280;15344;52.342;-1.290;2023-05-02T06:09:36;101189.20;;;12.93;86.54
28027;BME280;15344;52.342;-1.290;2023-05-02T06:12:01;101185.99;;;14.25;80.88
28027;BME280;15344;52.342;-1.290;2023-05-02T06:14:26;101188.42;;;13.67;82.68
28027;BME280;15344;52.342;-1.290;2023-05-02T06:16:52;101192.00;;;12.98;87.30
28027;BME280;15344;52.342;-1.290;2023-05-02T06:19:18;101196.00;;;13.13;83.62
28027;BME280;15344;52.342;-1.290;2023-05-02T06:21:43;101196.39;;;14.52;79.50
28027;BME280;15344;52.342;-1.290;2023-05-02T06:24:09;101199.09;;;14.25;79.82
28027;BME280;15344;52.342;-1.290;2023-05-02T06:26:34;101204.50;;;14.34;79.49
28027;BME280;15344;52.342;-1.290;2023-05-02T06:28:59;101204.50;;;14.31;78.56
28027;BME280;15344;52.342;-1.290;2023-05-02T06:31:25;101204.39;;;13.63;79.20
28027;BME280;15344;52.342;-1.290;2023-05-02T06:33:50;101206.28;;;14.55;78.15
28027;BME280;15344;52.342;-1.290;2023-05-02T06:36:16;101206.20;;;13.96;79.06
28027;BME280;15344;52.342;-1.290;2023-05-02T06:38:41;101205.64;;;14.02;79.42
28027;BME280;15344;52.342;-1.290;2023-05-02T06:41:12;101207.28;;;13.38;80.36
28027;BME280;15344;52.342;-1.290;2023-05-02T06:43:32;101207.94;;;14.17;77.45
28027;BME280;15344;52.342;-1.290;2023-05-02T06:45:57;101217.70;;;12.38;83.15
28027;BME280;15344;52.342;-1.290;2023-05-02T06:48:23;101217.67;;;14.03;80.87
28027;BME280;15344;52.342;-1.290;2023-05-02T06:50:50;101217.96;;;13.09;83.20
28027;BME280;15344;52.342;-1.290;2023-05-02T06:53:13;101219.32;;;13.52;79.31
28027;BME280;15344;52.342;-1.290;2023-05-02T06:55:39;101225.30;;;14.54;77.10
28027;BME280;15344;52.342;-1.290;2023-05-02T06:58:04;101233.26;;;14.98;75.06
28027;BME280;15344;52.342;-1.290;2023-05-02T07:00:29;101232.35;;;14.94;73.51
28027;BME280;15344;52.342;-1.290;2023-05-02T07:02:54;101230.87;;;14.83;72.41
28027;BME280;15344;52.342;-1.290;2023-05-02T07:05:20;101231.17;;;14.43;74.08
28027;BME280;15344;52.342;-1.290;2023-05-02T07:07:45;101237.89;;;15.24;72.58
28027;BME280;15344;52.342;-1.290;2023-05-02T07:10:11;101242.61;;;14.91;71.57
28027;BME280;15344;52.342;-1.290;2023-05-02T07:12:36;101238.47;;;15.39;71.19
28027;BME280;15344;52.342;-1.290;2023-05-02T07:15:07;101244.22;;;15.18;71.48
28027;BME280;15344;52.342;-1.290;2023-05-02T07:17:26;101242.71;;;15.02;71.67
28027;BME280;15344;52.342;-1.290;2023-05-02T07:19:52;101252.02;;;15.73;69.19
28027;BME280;15344;52.342;-1.290;2023-05-02T07:22:17;101251.41;;;14.64;73.53
28027;BME280;15344;52.342;-1.290;2023-05-02T07:24:42;101256.65;;;15.28;71.13
28027;BME280;15344;52.342;-1.290;2023-05-02T07:27:08;101259.00;;;15.09;70.42
28027;BME280;15344;52.342;-1.290;2023-05-02T07:29:33;101257.29;;;15.40;70.43
28027;BME280;15344;52.342;-1.290;2023-05-02T07:31:58;101259.47;;;15.73;70.52
28027;BME280;15344;52.342;-1.290;2023-05-02T07:34:23;101260.54;;;15.34;69.54
28027;BME280;15344;52.342;-1.290;2023-05-02T07:36:49;101257.91;;;15.81;69.03
28027;BME280;15344;52.342;-1.290;2023-05-02T07:39:14;101266.61;;;15.29;70.46
28027;BME280;15344;52.342;-1.290;2023-05-02T07:41:39;101268.86;;;15.48;68.36
28027;BME280;15344;52.342;-1.290;2023-05-02T07:44:04;101267.51;;;15.41;69.63
28027;BME280;15344;52.342;-1.290;2023-05-02T07:46:30;101265.69;;;15.29;69.71
28027;BME280;15344;52.342;-1.290;2023-05-02T07:48:55;101264.88;;;15.24;69.64
28027;BME280;15344;52.342;-1.290;2023-05-02T07:51:20;101257.83;;;15.98;67.65
28027;BME280;15344;52.342;-1.290;2023-05-02T07:53:46;101261.90;;;14.55;70.10
28027;BME280;15344;52.342;-1.290;2023-05-02T07:56:11;101259.11;;;15.72;67.03
28027;BME280;15344;52.342;-1.290;2023-05-02T07:58:37;101256.98;;;15.69;68.89
28027;BME280;15344;52.342;-1.290;2023-05-02T08:01:02;101259.19;;;15.59;69.41
28027;BME280;15344;52.342;-1.290;2023-05-02T08:03:27;101261.85;;;14.65;72.03
28027;BME280;15344;52.342;-1.290;2023-05-02T08:05:52;101266.12;;;15.15;69.89
28027;BME280;15344;52.342;-1.290;2023-05-02T08:08:17;101268.48;;;15.04;68.85
28027;BME280;15344;52.342;-1.290;2023-05-02T08:10:43;101266.39;;;16.31;66.52
28027;BME280;15344;52.342;-1.290;2023-05-02T08:13:08;101266.55;;;16.36;66.46
28027;BME280;15344;52.342;-1.290;2023-05-02T08:15:33;101268.68;;;15.85;69.02
28027;BME280;15344;52.342;-1.290;2023-05-02T08:17:58;101259.60;;;16.28;67.15
28027;BME280;15344;52.342;-1.290;2023-05-02T08:20:23;101263.33;;;15.91;66.87
28027;BME280;15344;52.342;-1.290;2023-05-02T08:22:49;101268.33;;;16.76;66.75
28027;BME280;15344;52.342;-1.290;2023-05-02T08:25:15;101262.88;;;16.02;67.25
28027;BME280;15344;52.342;-1.290;2023-05-02T08:27:39;101266.38;;;16.69;64.67
28027;BME280;15344;52.342;-1.290;2023-05-02T08:30:07;101277.01;;;15.31;67.27
28027;BME280;15344;52.342;-1.290;2023-05-02T08:32:31;101276.67;;;16.91;64.97
28027;BME280;15344;52.342;-1.290;2023-05-02T08:34:56;101268.42;;;17.34;66.08
28027;BME280;15344;52.342;-1.290;2023-05-02T08:37:21;101262.37;;;17.74;62.00
28027;BME280;15344;52.342;-1.290;2023-05-02T08:39:46;101260.92;;;17.86;59.44
28027;BME280;15344;52.342;-1.290;2023-05-02T08:42:12;101270.65;;;16.76;62.71
28027;BME280;15344;52.342;-1.290;2023-05-02T08:44:37;101273.08;;;18.61;58.68
28027;BME280;15344;52.342;-1.290;2023-05-02T08:47:02;101276.16;;;18.91;55.73
28027;BME280;15344;52.342;-1.290;2023-05-02T08:49:28;101269.98;;;18.24;57.25
28027;BME280;15344;52.342;-1.290;2023-05-02T08:51:53;101275.14;;;20.25;57.05
28027;BME280;15344;52.342;-1.290;2023-05-02T08:54:19;101274.55;;;20.79;53.84
28027;BME280;15344;52.342;-1.290;2023-05-02T08:56:43;101270.42;;;21.11;51.74
28027;BME280;15344;52.342;-1.290;2023-05-02T08:59:08;101270.31;;;21.93;51.12
28027;BME280;15344;52.342;-1.290;2023-05-02T09:01:34;101263.98;;;22.69;46.10
28027;BME280;15344;52.342;-1.290;2023-05-02T09:03:58;101265.92;;;23.21;46.10
28027;BME280;15344;52.342;-1.290;2023-05-02T09:06:23;101267.24;;;23.91;41.73
28027;BME280;15344;52.342;-1.290;2023-05-02T09:08:50;101256.71;;;24.76;42.50
28027;BME280;15344;52.342;-1.290;2023-05-02T09:11:15;101251.26;;;24.56;41.10
28027;BME280;15344;52.342;-1.290;2023-05-02T09:13:41;101247.63;;;24.26;40.10
28027;BME280;15344;52.342;-1.290;2023-05-02T09:16:07;101258.85;;;23.37;39.42
28027;BME280;15344;52.342;-1.290;2023-05-02T09:18:33;101257.58;;;23.15;41.02
28027;BME280;15344;52.342;-1.290;2023-05-02T09:20:59;101262.69;;;24.33;40.98
28027;BME280;15344;52.342;-1.290;2023-05-02T09:23:31;101268.79;;;23.36;40.32
28027;BME280;15344;52.342;-1.290;2023-05-02T09:25:48;101272.08;;;24.19;38.82
28027;BME280;15344;52.342;-1.290;2023-05-02T09:28:14;101269.35;;;25.11;37.89
28027;BME280;15344;52.342;-1.290;2023-05-02T09:30:40;101279.30;;;23.81;37.97
28027;BME280;15344;52.342;-1.290;2023-05-02T09:33:06;101282.12;;;23.89;38.19
28027;BME280;15344;52.342;-1.290;2023-05-02T09:35:32;101284.40;;;23.31;39.13
28027;BME280;15344;52.342;-1.290;2023-05-02T09:37:58;101280.73;;;24.35;38.38
28027;BME280;15344;52.342;-1.290;2023-05-02T09:40:24;101282.66;;;24.24;38.93
28027;BME280;15344;52.342;-1.290;2023-05-02T09:42:49;101287.17;;;24.13;38.83
28027;BME280;15344;52.342;-1.290;2023-05-02T09:45:20;101289.49;;;23.82;39.33
28027;BME280;15344;52.342;-1.290;2023-05-02T09:47:41;101289.83;;;24.64;37.77
28027;BME280;15344;52.342;-1.290;2023-05-02T09:50:07;101291.83;;;24.97;37.92
28027;BME280;15344;52.342;-1.290;2023-05-02T09:52:32;101296.35;;;24.35;41.00
28027;BME280;15344;52.342;-1.290;2023-05-02T09:54:58;101298.15;;;23.57;38.18
28027;BME280;15344;52.342;-1.290;2023-05-02T09:59:55;101301.98;;;23.14;40.22
28027;BME280;15344;52.342;-1.290;2023-05-02T10:02:15;101299.87;;;22.03;40.97
28027;BME280;15344;52.342;-1.290;2023-05-02T10:04:41;101298.31;;;23.71;39.75
28027;BME280;15344;52.342;-1.290;2023-05-02T10:07:08;101296.24;;;22.80;41.14
28027;BME280;15344;52.342;-1.290;2023-05-02T10:09:35;101294.54;;;23.12;42.42
28027;BME280;15344;52.342;-1.290;2023-05-02T10:12:01;101296.45;;;22.63;42.21
28027;BME280;15344;52.342;-1.290;2023-05-02T10:14:26;101298.84;;;21.89;43.07
28027;BME280;15344;52.342;-1.290;2023-05-02T10:17:00;101301.78;;;22.24;43.20
28027;BME280;15344;52.342;-1.290;2023-05-02T10:19:21;101306.09;;;21.39;43.36
28027;BME280;15344;52.342;-1.290;2023-05-02T10:21:42;101307.67;;;21.03;44.29
28027;BME280;15344;52.342;-1.290;2023-05-02T10:24:05;101308.62;;;22.02;46.12
28027;BME280;15344;52.342;-1.290;2023-05-02T10:26:30;101309.20;;;21.59;44.56
28027;BME280;15344;52.342;-1.290;2023-05-02T10:28:55;101311.93;;;22.55;42.86
28027;BME280;15344;52.342;-1.290;2023-05-02T10:31:20;101316.65;;;22.14;42.96
28027;BME280;15344;52.342;-1.290;2023-05-02T10:33:47;101315.39;;;22.15;42.96
28027;BME280;15344;52.342;-1.290;2023-05-02T10:36:11;101316.11;;;20.54;47.63
28027;BME280;15344;52.342;-1.290;2023-05-02T10:38:35;101316.12;;;20.43;46.31
28027;BME280;15344;52.342;-1.290;2023-05-02T10:41:04;101317.74;;;20.52;47.03
28027;BME280;15344;52.342;-1.290;2023-05-02T10:43:29;101321.20;;;21.57;44.23
28027;BME280;15344;52.342;-1.290;2023-05-02T10:45:51;101326.13;;;21.32;45.95
28027;BME280;15344;52.342;-1.290;2023-05-02T10:48:16;101330.30;;;21.77;44.29
28027;BME280;15344;52.342;-1.290;2023-05-02T10:50:44;101327.68;;;21.28;44.47
28027;BME280;15344;52.342;-1.290;2023-05-02T10:55:31;101324.99;;;20.96;44.82
28027;BME280;15344;52.342;-1.290;2023-05-02T11:00:22;101334.53;;;20.04;48.01
28027;BME280;15344;52.342;-1.290;2023-05-02T11:02:47;101334.55;;;19.88;48.51
28027;BME280;15344;52.342;-1.290;2023-05-02T11:05:12;101329.88;;;19.70;48.79
28027;BME280;15344;52.342;-1.290;2023-05-02T11:07:36;101325.13;;;18.15;51.61
28027;BME280;15344;52.342;-1.290;2023-05-02T11:14:52;101334.87;;;19.76;49.76
28027;BME280;15344;52.342;-1.290;2023-05-02T11:17:17;101330.40;;;20.60;47.99
28027;BME280;15344;52.342;-1.290;2023-05-02T11:24:37;101339.75;;;20.00;49.15
28027;BME280;15344;52.342;-1.290;2023-05-02T11:31:53;101346.33;;;20.06;46.88
28027;BME280;15344;52.342;-1.290;2023-05-02T11:34:14;101344.09;;;20.18;47.78
28027;BME280;15344;52.342;-1.290;2023-05-02T11:36:38;101344.04;;;18.47;51.72
28027;BME280;15344;52.342;-1.290;2023-05-02T11:39:06;101344.69;;;19.97;48.93
28027;BME280;15344;52.342;-1.290;2023-05-02T11:44:01;101347.71;;;20.57;48.64
28027;BME280;15344;52.342;-1.290;2023-05-02T11:46:19;101346.12;;;19.79;50.36
28027;BME280;15344;52.342;-1.290;2023-05-02T11:48:44;101352.04;;;19.67;49.09
28027;BME280;15344;52.342;-1.290;2023-05-02T11:51:10;101361.59;;;20.23;49.12
28027;BME280;15344;52.342;-1.290;2023-05-02T11:53:39;101357.01;;;20.21;48.01
28027;BME280;15344;52.342;-1.290;2023-05-02T11:56:03;101345.55;;;20.33;47.85
28027;BME280;15344;52.342;-1.290;2023-05-02T11:58:27;101349.28;;;19.44;50.14
28027;BME280;15344;52.342;-1.290;2023-05-02T12:00:52;101349.52;;;18.45;50.96
28027;BME280;15344;52.342;-1.290;2023-05-02T12:03:21;101349.78;;;19.28;49.26
28027;BME280;15344;52.342;-1.290;2023-05-02T12:05:41;101348.15;;;18.88;51.63
28027;BME280;15344;52.342;-1.290;2023-05-02T12:08:06;101350.14;;;19.40;50.25
28027;BME280;15344;52.342;-1.290;2023-05-02T12:10:36;101348.93;;;19.50;48.60
28027;BME280;15344;52.342;-1.290;2023-05-02T12:13:03;101348.81;;;20.16;48.88
28027;BME280;15344;52.342;-1.290;2023-05-02T12:15:22;101347.27;;;20.80;46.25
28027;BME280;15344;52.342;-1.290;2023-05-02T12:17:47;101355.38;;;19.61;48.45
28027;BME280;15344;52.342;-1.290;2023-05-02T12:20:13;101355.08;;;19.94;48.26
28027;BME280;15344;52.342;-1.290;2023-05-02T12:22:38;101353.21;;;19.86;47.46
28027;BME280;15344;52.342;-1.290;2023-05-02T12:25:04;101351.05;;;20.37;49.49
28027;BME280;15344;52.342;-1.290;2023-05-02T12:27:28;101350.99;;;19.34;47.84
28027;BME280;15344;52.342;-1.290;2023-05-02T12:29:53;101352.48;;;20.29;49.03
28027;BME280;15344;52.342;-1.290;2023-05-02T12:32:26;101350.47;;;20.26;47.78
28027;BME280;15344;52.342;-1.290;2023-05-02T12:34:44;101342.68;;;20.68;47.14
28027;BME280;15344;52.342;-1.290;2023-05-02T12:37:08;101345.58;;;19.93;48.00
28027;BME280;15344;52.342;-1.290;2023-05-02T12:39:34;101344.56;;;19.69;47.95
28027;BME280;15344;52.342;-1.290;2023-05-02T12:41:58;101341.88;;;20.33;49.16
28027;BME280;15344;52.342;-1.290;2023-05-02T12:46:57;101335.52;;;21.10;46.96
28027;BME280;15344;52.342;-1.290;2023-05-02T12:49:14;101338.36;;;19.01;51.18
28027;BME280;15344;52.342;-1.290;2023-05-02T12:51:39;101334.72;;;18.14;55.37
28027;BME280;15344;52.342;-1.290;2023-05-02T12:54:05;101343.26;;;19.28;53.19
28027;BME280;15344;52.342;-1.290;2023-05-02T12:58:55;101343.64;;;19.57;51.23
28027;BME280;15344;52.342;-1.290;2023-05-02T13:01:20;101348.36;;;18.48;52.33
28027;BME280;15344;52.342;-1.290;2023-05-02T13:03:45;101349.90;;;19.88;50.82